map of APC home
APC - Airport
Location
City:  Napa, California, United States
Name:Napa County Airport
ICAO:KAPC
IATA:APC
FAA LID:APC

Details
Type:Airport (Airfield)
Use:Public/Civil
Latitude:3812'49"N (38.213636)
Longitude:12216'49"W (-122.280153)
Datum:WGS 1984
Elevation:35 ft (11 m)
Variation:13.52E (WMM2015v2 magnetic declination)
-0.08 annual change
Runways:3
Longest:5008 × 150 ft (1526 × 45.5 m), paved

Time
Time Zone:UTC-8 (DST-7)
Local Time:

Weather
METAR:KAPC 041354Z AUTO 26017G22KT 10SM -RA BR FEW026 BKN048 OVC065 09/07 A2951 RMK AO2 RAB26 SLP983 P0001 T00940072

Related Locations
Nearby:
Farthest:FTU: 11329 mi / 18232 km
Tolagnaro [Maurillac Airport (Fort Dauphin Airport)], MG

Find:

   beyond  
but within

Other Information
Maps:
NOTAMs:
Links:
Sources:

  
  • flag of United States
  • flag of California
  

Airport Diagram

Airport diagram for APC

Airport diagram PDF from FAA

Sectional Chart

Flight Planning
at skyvector.com

Satellite Image

Google Maps Satellite view

 

Copyright © 2004-2019 Karl L. Swartz. All rights reserved.
The Great Circle Mapper name and logo are trademarks of the Great Circle Mapper.
All other trademarks mentioned herein belong to their respective owners.
Please see credits for attibutions and further copyright information.

  Follow gcmap on Facebook Follow gcmap on Twitter GCmap on LinkedIn

hCard Microformat

Geo Microformat